createdAt,value
2023-05-10T00:02:04.572Z,0.20
2023-05-10T00:04:31.560Z,0.22
2023-05-10T00:06:58.543Z,0.52
2023-05-10T00:09:25.663Z,4.68
2023-05-10T00:11:52.661Z,2.35
2023-05-10T00:14:20.057Z,1.73
2023-05-10T00:16:47.222Z,1.75
2023-05-10T00:19:14.312Z,0.30
2023-05-10T00:21:41.635Z,1.70
2023-05-10T00:24:08.638Z,1.48
2023-05-10T00:26:35.749Z,0.25
2023-05-10T00:29:03.013Z,0.93
2023-05-10T00:31:30.096Z,3.67
2023-05-10T00:33:58.240Z,0.65
2023-05-10T00:36:25.360Z,0.82
2023-05-10T00:38:52.482Z,1.17
2023-05-10T00:41:19.716Z,3.28
2023-05-10T00:43:47.580Z,0.60
2023-05-10T00:46:16.292Z,3.13
2023-05-10T00:48:44.696Z,0.30
2023-05-10T00:51:11.867Z,0.28
2023-05-10T00:53:38.990Z,0.52
2023-05-10T00:56:06.432Z,4.35
2023-05-10T00:58:34.063Z,0.45
2023-05-10T01:01:02.174Z,0.30
2023-05-10T01:03:29.901Z,4.72
2023-05-10T01:05:57.080Z,1.05
2023-05-10T01:08:26.645Z,0.60
2023-05-10T01:10:53.859Z,4.38
2023-05-10T01:13:43.499Z,1.00
2023-05-10T01:16:10.541Z,0.90
2023-05-10T01:18:41.944Z,0.70
2023-05-10T01:21:33.122Z,1.20
2023-05-10T01:24:22.856Z,0.30
2023-05-10T01:27:11.047Z,0.75
2023-05-10T01:30:13.558Z,1.17
2023-05-10T01:32:45.235Z,0.30
2023-05-10T01:35:23.100Z,0.30
2023-05-10T01:38:05.524Z,0.30
2023-05-10T01:41:03.324Z,0.32
2023-05-10T01:43:37.980Z,4.72
2023-05-10T01:46:11.842Z,0.20
2023-05-10T01:48:48.037Z,1.20
2023-05-10T01:51:22.777Z,0.52
2023-05-10T01:53:51.109Z,0.95
2023-05-10T01:56:24.134Z,0.47
2023-05-10T01:58:52.796Z,1.17
2023-05-10T02:01:22.473Z,0.40
2023-05-10T02:03:52.724Z,0.95
2023-05-10T02:06:22.946Z,5.72
2023-05-10T02:08:52.431Z,3.58
2023-05-10T02:11:22.374Z,0.43
2023-05-10T02:13:51.349Z,0.55
2023-05-10T02:16:22.758Z,0.57
2023-05-10T02:18:51.171Z,0.60
2023-05-10T02:21:21.268Z,3.20
2023-05-10T02:23:51.196Z,1.77
2023-05-10T02:26:20.158Z,0.50
2023-05-10T02:28:48.256Z,1.58
2023-05-10T02:31:15.875Z,3.70
2023-05-10T02:33:44.798Z,1.77
2023-05-10T02:36:13.472Z,5.07
2023-05-10T02:38:41.425Z,1.38
2023-05-10T02:41:10.629Z,7.93
2023-05-10T02:43:40.365Z,1.75
2023-05-10T02:46:07.592Z,1.15
2023-05-10T02:48:36.349Z,3.28
2023-05-10T02:51:08.035Z,1.20
2023-05-10T02:53:37.538Z,1.20
2023-05-10T02:56:15.043Z,1.20
2023-05-10T02:58:42.021Z,2.72
2023-05-10T03:01:09.684Z,2.30
2023-05-10T03:03:36.721Z,2.20
2023-05-10T03:06:04.392Z,2.90
2023-05-10T03:08:32.065Z,2.05
2023-05-10T03:11:29.896Z,2.55
2023-05-10T03:14:23.346Z,6.00
2023-05-10T03:17:01.304Z,2.47
2023-05-10T03:19:33.233Z,2.50
2023-05-10T03:22:04.693Z,2.47
2023-05-10T03:24:36.357Z,3.75
2023-05-10T03:27:05.360Z,5.60
2023-05-10T03:29:33.086Z,3.38
2023-05-10T03:32:01.100Z,3.42
2023-05-10T03:34:32.311Z,5.53
2023-05-10T03:36:59.444Z,8.25
2023-05-10T03:39:29.009Z,6.95
2023-05-10T03:41:59.220Z,4.20
2023-05-10T03:44:26.232Z,11.43
2023-05-10T03:46:53.341Z,5.90
2023-05-10T03:49:20.329Z,6.53
2023-05-10T03:51:47.656Z,7.93
2023-05-10T03:54:14.689Z,7.18
2023-05-10T03:56:41.935Z,6.35
2023-05-10T03:59:09.746Z,6.57
2023-05-10T04:01:36.817Z,6.95
2023-05-10T04:04:04.058Z,8.55
2023-05-10T04:06:32.866Z,14.32
2023-05-10T04:09:01.382Z,9.27
2023-05-10T04:11:28.858Z,10.13
2023-05-10T04:13:55.923Z,7.68
2023-05-10T04:16:23.109Z,13.57
2023-05-10T04:18:50.120Z,11.00
2023-05-10T04:21:17.189Z,8.52
2023-05-10T04:23:44.377Z,7.85
2023-05-10T04:26:11.473Z,10.27
2023-05-10T04:28:38.850Z,8.15
2023-05-10T04:31:07.544Z,6.22
2023-05-10T04:33:35.321Z,4.93
2023-05-10T04:36:02.730Z,5.78
2023-05-10T04:38:30.090Z,3.20
2023-05-10T04:41:08.044Z,4.18
2023-05-10T04:43:37.241Z,2.42
2023-05-10T04:46:05.381Z,2.55
2023-05-10T04:48:32.477Z,4.55
2023-05-10T04:50:59.504Z,4.65
2023-05-10T04:53:26.694Z,2.80
2023-05-10T04:55:53.695Z,2.67
2023-05-10T04:58:20.676Z,2.72
2023-05-10T05:00:47.688Z,3.00
2023-05-10T05:03:14.819Z,3.85
2023-05-10T05:05:41.880Z,2.90
2023-05-10T05:08:08.886Z,2.60
2023-05-10T05:10:35.873Z,1.70
2023-05-10T05:13:02.965Z,3.42
2023-05-10T05:15:31.463Z,4.68
2023-05-10T05:17:58.562Z,1.48
2023-05-10T05:20:25.639Z,1.80
2023-05-10T05:22:52.712Z,2.72
2023-05-10T05:25:19.691Z,2.42
2023-05-10T05:27:46.658Z,5.47
2023-05-10T05:30:13.752Z,2.13
2023-05-10T05:32:40.773Z,2.05
2023-05-10T05:35:08.219Z,3.33
2023-05-10T05:37:36.196Z,2.42
2023-05-10T05:40:03.540Z,3.72
2023-05-10T05:42:32.326Z,3.80
2023-05-10T05:44:59.460Z,6.32
2023-05-10T05:47:26.569Z,2.08
2023-05-10T05:49:53.546Z,3.33
2023-05-10T05:52:20.586Z,3.28
2023-05-10T05:54:47.639Z,7.22
2023-05-10T05:57:14.631Z,7.50
2023-05-10T05:59:44.713Z,4.40
2023-05-10T06:02:11.799Z,2.75
2023-05-10T06:04:39.256Z,4.90
2023-05-10T06:07:08.888Z,2.65
2023-05-10T06:09:35.898Z,3.75
2023-05-10T06:12:02.899Z,6.10
2023-05-10T06:14:29.873Z,6.43
2023-05-10T06:16:57.023Z,9.02
2023-05-10T06:19:24.176Z,5.65
2023-05-10T06:21:53.219Z,5.07
2023-05-10T06:24:20.888Z,4.60
2023-05-10T06:26:47.979Z,4.47
2023-05-10T06:29:16.178Z,4.18
2023-05-10T06:31:43.223Z,6.10
2023-05-10T06:34:10.657Z,5.20
2023-05-10T06:36:37.633Z,9.45
2023-05-10T06:39:04.767Z,4.88
2023-05-10T06:41:31.726Z,3.85
2023-05-10T06:43:58.751Z,5.30
2023-05-10T06:46:25.906Z,6.22
2023-05-10T06:48:53.132Z,7.78
2023-05-10T06:51:22.056Z,5.35
2023-05-10T06:53:49.085Z,7.72
2023-05-10T06:56:16.104Z,9.20
2023-05-10T06:58:43.140Z,8.20
2023-05-10T07:01:10.207Z,6.28
2023-05-10T07:03:37.260Z,4.25
2023-05-10T07:06:04.865Z,8.10
2023-05-10T07:08:32.587Z,3.25
2023-05-10T07:11:11.108Z,4.13
2023-05-10T07:13:40.004Z,4.55
2023-05-10T07:16:07.551Z,4.82
2023-05-10T07:18:34.953Z,5.38
2023-05-10T07:21:02.610Z,12.75
2023-05-10T07:23:30.456Z,7.65
2023-05-10T07:25:58.396Z,4.95
2023-05-10T07:28:25.438Z,7.93
2023-05-10T07:30:52.581Z,7.55
2023-05-10T07:33:19.658Z,7.95
2023-05-10T07:35:46.747Z,6.47
2023-05-10T07:38:13.735Z,5.88
2023-05-10T07:40:40.955Z,11.75
2023-05-10T07:43:07.958Z,6.55
2023-05-10T07:45:35.421Z,6.55
2023-05-10T07:48:02.618Z,7.65
2023-05-10T07:50:29.775Z,7.20
2023-05-10T07:52:56.800Z,11.52
2023-05-10T07:55:23.868Z,10.85
2023-05-10T07:57:50.941Z,7.13
2023-05-10T08:00:20.258Z,8.40
2023-05-10T08:02:48.283Z,10.63
2023-05-10T08:05:15.717Z,13.82
2023-05-10T08:07:43.396Z,13.77
2023-05-10T08:10:12.083Z,14.75
2023-05-10T08:12:39.677Z,22.67
2023-05-10T08:15:07.959Z,15.93
2023-05-10T08:17:35.410Z,19.63
2023-05-10T08:20:02.494Z,22.73
2023-05-10T08:22:29.523Z,22.20
2023-05-10T08:24:56.511Z,20.35
2023-05-10T08:27:23.618Z,21.45
2023-05-10T08:29:50.808Z,26.17
2023-05-10T08:32:18.502Z,27.35
2023-05-10T08:34:45.493Z,27.25
2023-05-10T08:37:14.509Z,33.10
2023-05-10T08:39:41.914Z,31.42
2023-05-10T08:42:10.224Z,33.35
2023-05-10T08:44:37.797Z,28.33
2023-05-10T08:47:08.401Z,29.42
2023-05-10T08:49:36.081Z,28.13
2023-05-10T08:52:05.217Z,30.73
2023-05-10T08:54:33.925Z,24.92
2023-05-10T08:57:01.556Z,23.17
2023-05-10T08:59:29.288Z,22.23
2023-05-10T09:01:59.372Z,20.27
2023-05-10T09:04:26.963Z,23.08
2023-05-10T09:06:55.609Z,26.88
2023-05-10T09:09:22.701Z,21.45
2023-05-10T09:11:49.983Z,26.65
2023-05-10T09:14:18.249Z,27.60
2023-05-10T09:16:45.717Z,22.50
2023-05-10T09:19:12.827Z,24.27
2023-05-10T09:21:39.949Z,24.58
2023-05-10T09:24:08.666Z,21.30
2023-05-10T09:26:36.950Z,23.05
2023-05-10T09:29:04.512Z,22.67
2023-05-10T09:31:57.221Z,23.63
2023-05-10T09:34:32.750Z,27.98
2023-05-10T09:37:02.386Z,21.85
2023-05-10T09:39:37.230Z,21.33
2023-05-10T09:42:06.756Z,15.05
2023-05-10T09:44:34.681Z,21.63
2023-05-10T09:47:03.081Z,32.55
2023-05-10T09:49:30.479Z,20.05
2023-05-10T09:52:02.622Z,19.65
2023-05-10T09:54:29.613Z,21.08
2023-05-10T09:56:56.962Z,21.38
2023-05-10T09:59:27.761Z,16.52
2023-05-10T10:02:00.301Z,13.55
2023-05-10T10:07:05.842Z,13.93
2023-05-10T10:09:34.346Z,13.60
2023-05-10T10:12:05.589Z,14.27
2023-05-10T10:14:32.638Z,17.02
2023-05-10T10:19:34.011Z,17.92
2023-05-10T10:22:01.290Z,11.40
2023-05-10T10:24:28.293Z,13.98
2023-05-10T10:27:00.644Z,22.65
2023-05-10T10:29:46.925Z,11.30
2023-05-10T10:32:36.778Z,9.82
2023-05-10T10:35:05.004Z,10.18
2023-05-10T10:37:46.176Z,27.20
2023-05-10T10:40:34.653Z,8.95
2023-05-10T10:43:25.305Z,8.65
2023-05-10T10:46:16.272Z,6.25
2023-05-10T10:48:52.464Z,8.95
2023-05-10T10:51:19.473Z,13.15
2023-05-10T10:53:48.974Z,9.45
2023-05-10T10:56:16.455Z,14.23
2023-05-10T10:58:52.259Z,5.05
2023-05-10T11:01:19.942Z,3.83
2023-05-10T11:04:02.071Z,3.45
2023-05-10T11:06:33.428Z,6.50
2023-05-10T11:09:11.031Z,4.53
2023-05-10T11:11:52.022Z,7.38
2023-05-10T11:14:22.489Z,8.63
2023-05-10T11:16:49.746Z,6.28
2023-05-10T11:19:18.084Z,7.57
2023-05-10T11:22:12.006Z,10.57
2023-05-10T11:24:39.032Z,5.30
2023-05-10T11:27:06.661Z,6.03
2023-05-10T11:29:33.662Z,4.88
2023-05-10T11:32:01.002Z,2.70
2023-05-10T11:34:35.504Z,5.40
2023-05-10T11:37:02.511Z,7.07
2023-05-10T11:39:30.992Z,2.65
2023-05-10T11:41:59.200Z,4.90
2023-05-10T11:44:32.953Z,5.30
2023-05-10T11:47:03.292Z,11.82
2023-05-10T11:49:30.874Z,5.97
2023-05-10T11:52:08.625Z,7.22
2023-05-10T11:54:38.490Z,5.70
2023-05-10T11:57:05.734Z,6.15
2023-05-10T11:59:32.897Z,6.78
2023-05-10T12:02:00.459Z,8.05
2023-05-10T12:04:30.213Z,11.75
2023-05-10T12:06:57.442Z,3.00
2023-05-10T12:11:57.854Z,7.82
2023-05-10T12:14:25.373Z,13.90
2023-05-10T12:16:52.664Z,7.88
2023-05-10T12:19:22.044Z,6.10
2023-05-10T12:21:49.551Z,2.40
2023-05-10T12:24:20.097Z,4.30
2023-05-10T12:26:47.295Z,6.18
2023-05-10T12:29:16.519Z,3.85
2023-05-10T12:31:57.307Z,2.75
2023-05-10T12:34:47.459Z,4.28
2023-05-10T12:37:14.868Z,7.93
2023-05-10T12:39:43.646Z,4.88
2023-05-10T12:42:11.351Z,4.47
2023-05-10T12:44:39.293Z,3.55
2023-05-10T12:47:06.855Z,6.13
2023-05-10T12:49:34.795Z,11.95
2023-05-10T12:52:02.085Z,5.10
2023-05-10T12:54:29.136Z,2.05
2023-05-10T12:56:56.181Z,2.80
2023-05-10T12:59:23.788Z,4.40
2023-05-10T13:01:51.028Z,3.50
2023-05-10T13:04:18.174Z,2.25
2023-05-10T13:06:45.347Z,2.80
2023-05-10T13:09:12.368Z,3.25
2023-05-10T13:11:39.469Z,3.00
2023-05-10T13:14:06.541Z,2.45
2023-05-10T13:16:33.831Z,1.90
2023-05-10T13:19:01.207Z,2.65
2023-05-10T13:21:28.811Z,4.25
2023-05-10T13:23:56.426Z,3.08
2023-05-10T13:26:23.525Z,3.50
2023-05-10T13:28:52.397Z,6.97
2023-05-10T13:31:19.503Z,2.88
2023-05-10T13:33:46.565Z,3.58
2023-05-10T13:36:13.555Z,3.25
2023-05-10T13:38:40.558Z,4.53
2023-05-10T13:41:07.769Z,4.60
2023-05-10T13:43:34.855Z,8.27
2023-05-10T13:46:02.628Z,3.85
2023-05-10T13:48:29.638Z,4.53
2023-05-10T13:50:57.048Z,3.80
2023-05-10T13:53:24.097Z,6.38
2023-05-10T13:55:51.314Z,5.93
2023-05-10T13:58:18.312Z,6.82
2023-05-10T14:00:45.313Z,9.57
2023-05-10T14:03:12.718Z,6.75
2023-05-10T14:05:39.892Z,6.15
2023-05-10T14:08:06.897Z,4.97
2023-05-10T14:10:33.932Z,9.45
2023-05-10T14:13:01.150Z,6.53
2023-05-10T14:15:28.216Z,10.02
2023-05-10T14:17:55.243Z,8.93
2023-05-10T14:20:22.425Z,9.60
2023-05-10T14:22:49.407Z,7.90
2023-05-10T14:25:16.563Z,7.72
2023-05-10T14:27:43.926Z,12.88
2023-05-10T14:30:11.555Z,6.93
2023-05-10T14:32:38.814Z,8.88
2023-05-10T14:35:07.007Z,12.30
2023-05-10T14:37:34.249Z,9.32
2023-05-10T14:40:01.370Z,11.85
2023-05-10T14:42:29.344Z,9.38
2023-05-10T14:44:56.374Z,10.93
2023-05-10T14:47:23.417Z,15.70
2023-05-10T14:49:50.488Z,9.70
2023-05-10T14:52:18.229Z,11.68
2023-05-10T14:54:45.226Z,11.60
2023-05-10T14:57:12.301Z,12.75
2023-05-10T14:59:39.540Z,8.15
2023-05-10T15:02:09.090Z,15.23
2023-05-10T15:04:36.754Z,7.30
2023-05-10T15:07:04.348Z,9.80
2023-05-10T15:09:31.984Z,8.38
2023-05-10T15:11:59.096Z,8.20
2023-05-10T15:14:26.171Z,9.88
2023-05-10T15:16:53.298Z,7.25
2023-05-10T15:19:21.027Z,15.43
2023-05-10T15:21:48.282Z,8.45
2023-05-10T15:24:15.514Z,10.95
2023-05-10T15:26:42.627Z,9.88
2023-05-10T15:29:09.612Z,7.05
2023-05-10T15:31:36.908Z,7.50
2023-05-10T15:34:04.047Z,9.05
2023-05-10T15:36:32.730Z,5.60
2023-05-10T15:38:59.703Z,9.43
2023-05-10T15:41:26.692Z,7.47
2023-05-10T15:43:54.604Z,6.57
2023-05-10T15:46:21.730Z,12.55
2023-05-10T15:48:48.776Z,8.63
2023-05-10T15:51:15.907Z,6.80
2023-05-10T15:53:56.531Z,7.53
2023-05-10T15:56:30.028Z,10.32
2023-05-10T15:58:57.207Z,9.35
2023-05-10T16:01:24.325Z,8.13
2023-05-10T16:03:51.373Z,12.30
2023-05-10T16:06:18.357Z,9.07
2023-05-10T16:08:45.353Z,9.73
2023-05-10T16:11:12.419Z,12.25
2023-05-10T16:13:39.399Z,12.18
2023-05-10T16:16:08.793Z,10.63
2023-05-10T16:18:36.088Z,12.63
2023-05-10T16:21:03.465Z,18.50
2023-05-10T16:23:30.639Z,15.50
2023-05-10T16:25:57.673Z,11.80
2023-05-10T16:28:24.782Z,14.02
2023-05-10T16:30:51.906Z,12.05
2023-05-10T16:33:18.914Z,8.65
2023-05-10T16:35:46.296Z,7.10
2023-05-10T16:38:13.316Z,8.60
2023-05-10T16:40:40.324Z,8.43
2023-05-10T16:43:07.703Z,8.27
2023-05-10T16:45:34.866Z,6.25
2023-05-10T16:48:01.944Z,6.60
2023-05-10T16:50:29.241Z,8.00
2023-05-10T16:52:56.316Z,6.43
2023-05-10T16:55:26.208Z,4.53
2023-05-10T16:57:59.495Z,4.82
2023-05-10T17:00:27.270Z,5.18
2023-05-10T17:02:54.772Z,6.45
2023-05-10T17:05:22.542Z,4.63
2023-05-10T17:07:50.531Z,5.78
2023-05-10T17:10:17.728Z,3.75
2023-05-10T17:12:45.609Z,3.70
2023-05-10T17:15:12.967Z,1.48
2023-05-10T17:17:40.155Z,2.45
2023-05-10T17:20:08.294Z,6.30
2023-05-10T17:22:35.437Z,2.88
2023-05-10T17:25:02.668Z,2.42
2023-05-10T17:27:30.175Z,4.70
2023-05-10T17:29:57.842Z,5.38
2023-05-10T17:32:25.687Z,7.95
2023-05-10T17:34:52.744Z,8.27
2023-05-10T17:37:19.812Z,5.60
2023-05-10T17:39:46.859Z,14.43
2023-05-10T17:42:16.196Z,3.65
2023-05-10T17:44:43.850Z,3.53
2023-05-10T17:47:10.898Z,3.70
2023-05-10T17:49:37.969Z,6.63
2023-05-10T17:52:05.050Z,3.33
2023-05-10T17:54:32.088Z,6.00
2023-05-10T17:57:00.795Z,4.95
2023-05-10T17:59:27.814Z,5.47
2023-05-10T18:01:54.787Z,10.82
2023-05-10T18:04:21.847Z,6.95
2023-05-10T18:06:49.319Z,8.27
2023-05-10T18:09:17.805Z,7.50
2023-05-10T18:11:44.762Z,6.55
2023-05-10T18:14:12.196Z,5.82
2023-05-10T18:16:39.266Z,6.10
2023-05-10T18:19:06.462Z,4.90
2023-05-10T18:21:33.512Z,5.45
2023-05-10T18:24:00.520Z,7.45
2023-05-10T18:26:27.705Z,10.48
2023-05-10T18:28:54.746Z,4.55
2023-05-10T18:31:22.011Z,6.13
2023-05-10T18:33:49.112Z,7.13
2023-05-10T18:36:16.762Z,5.35
2023-05-10T18:38:44.139Z,4.90
2023-05-10T18:41:12.345Z,6.18
2023-05-10T18:43:39.329Z,4.57
2023-05-10T18:46:06.593Z,5.47
2023-05-10T18:48:33.604Z,4.78
2023-05-10T18:51:00.738Z,4.75
2023-05-10T18:53:27.888Z,5.57
2023-05-10T18:55:57.698Z,3.38
2023-05-10T18:58:27.438Z,6.80
2023-05-10T19:00:54.852Z,7.45
2023-05-10T19:03:22.485Z,5.22
2023-05-10T19:05:49.488Z,4.68
2023-05-10T19:08:17.095Z,5.82
2023-05-10T19:10:44.244Z,9.60
2023-05-10T19:13:11.477Z,8.05
2023-05-10T19:15:38.533Z,9.32
2023-05-10T19:18:07.997Z,7.22
2023-05-10T19:20:36.588Z,8.18
2023-05-10T19:25:35.989Z,12.35
2023-05-10T19:28:02.959Z,10.05
2023-05-10T19:30:31.826Z,12.80
2023-05-10T19:32:58.908Z,6.35
2023-05-10T19:35:26.036Z,8.25
2023-05-10T19:37:53.498Z,8.50
2023-05-10T19:40:20.560Z,9.70
2023-05-10T19:42:48.635Z,8.95
2023-05-10T19:45:16.408Z,6.00
2023-05-10T19:47:43.953Z,13.23
2023-05-10T19:50:12.319Z,15.18
2023-05-10T19:52:39.541Z,6.93
2023-05-10T19:55:07.145Z,9.18
2023-05-10T19:57:34.408Z,8.48
2023-05-10T20:00:01.539Z,11.70
2023-05-10T20:02:28.544Z,11.82
2023-05-10T20:04:55.609Z,9.60
2023-05-10T20:07:22.594Z,7.13
2023-05-10T20:09:49.584Z,8.25
2023-05-10T20:12:16.610Z,8.75
2023-05-10T20:14:43.628Z,8.77
2023-05-10T20:17:10.711Z,10.10
2023-05-10T20:19:37.719Z,7.32
2023-05-10T20:22:05.394Z,9.00
2023-05-10T20:24:32.419Z,12.82
2023-05-10T20:27:00.407Z,11.10
2023-05-10T20:29:27.416Z,8.07
2023-05-10T20:31:54.429Z,7.03
2023-05-10T20:34:21.833Z,8.13
2023-05-10T20:36:48.885Z,7.05
2023-05-10T20:39:16.013Z,15.98
2023-05-10T20:41:43.682Z,9.93
2023-05-10T20:44:10.768Z,14.05
2023-05-10T20:46:37.926Z,7.30
2023-05-10T20:49:05.554Z,16.70
2023-05-10T20:51:33.269Z,14.50
2023-05-10T20:54:02.468Z,13.05
2023-05-10T20:56:29.645Z,9.05
2023-05-10T20:58:56.758Z,8.23
2023-05-10T21:01:23.824Z,9.90
2023-05-10T21:03:50.838Z,12.82
2023-05-10T21:06:17.872Z,11.07
2023-05-10T21:08:44.852Z,9.43
2023-05-10T21:11:11.905Z,13.65
2023-05-10T21:13:38.955Z,13.85
2023-05-10T21:16:06.133Z,11.95
2023-05-10T21:18:33.179Z,9.82
2023-05-10T21:21:00.334Z,10.50
2023-05-10T21:23:27.438Z,8.90
2023-05-10T21:25:55.800Z,17.17
2023-05-10T21:28:23.179Z,6.70
2023-05-10T21:30:51.049Z,15.75
2023-05-10T21:33:18.014Z,12.70
2023-05-10T21:35:45.253Z,8.30
2023-05-10T21:38:12.452Z,10.02
2023-05-10T21:40:40.305Z,9.15
2023-05-10T21:43:08.175Z,7.70
2023-05-10T21:45:36.341Z,12.88
2023-05-10T21:48:03.648Z,10.23
2023-05-10T21:50:30.746Z,14.45
2023-05-10T21:52:57.801Z,13.27
2023-05-10T21:55:24.935Z,16.27
2023-05-10T21:57:52.017Z,11.80
2023-05-10T22:00:19.717Z,9.73
2023-05-10T22:02:47.355Z,13.30
2023-05-10T22:05:14.551Z,17.17
2023-05-10T22:07:41.623Z,19.92
2023-05-10T22:10:09.518Z,11.82
2023-05-10T22:12:36.590Z,11.80
2023-05-10T22:15:09.927Z,13.98
2023-05-10T22:17:40.560Z,11.35
2023-05-10T22:20:08.828Z,12.43
2023-05-10T22:22:36.644Z,10.85
2023-05-10T22:25:05.781Z,13.30
2023-05-10T22:27:32.852Z,11.30
2023-05-10T22:29:59.824Z,17.20
2023-05-10T22:32:26.908Z,13.98
2023-05-10T22:34:53.898Z,12.60
2023-05-10T22:37:20.900Z,13.82
2023-05-10T22:39:48.666Z,11.38
2023-05-10T22:42:16.163Z,13.98
2023-05-10T22:44:43.595Z,10.18
2023-05-10T22:47:10.659Z,9.07
2023-05-10T22:49:37.919Z,10.90
2023-05-10T22:52:04.933Z,14.90
2023-05-10T22:54:33.191Z,9.15
2023-05-10T22:57:01.895Z,13.18
2023-05-10T22:59:28.886Z,21.92
2023-05-10T23:01:55.979Z,13.80
2023-05-10T23:04:23.236Z,10.75
2023-05-10T23:06:50.264Z,9.77
2023-05-10T23:09:17.335Z,11.98
2023-05-10T23:11:44.312Z,11.85
2023-05-10T23:14:11.770Z,13.65
2023-05-10T23:16:39.002Z,9.25
2023-05-10T23:19:07.112Z,17.85
2023-05-10T23:21:34.417Z,19.45
2023-05-10T23:24:01.484Z,18.23
2023-05-10T23:26:28.484Z,14.38
2023-05-10T23:28:55.505Z,13.27
2023-05-10T23:31:22.540Z,16.83
2023-05-10T23:33:49.571Z,14.75
2023-05-10T23:36:16.719Z,23.55
2023-05-10T23:38:43.701Z,16.02
2023-05-10T23:41:10.859Z,16.55
2023-05-10T23:43:37.830Z,17.50
2023-05-10T23:46:06.388Z,14.15
2023-05-10T23:48:33.448Z,20.33
2023-05-10T23:51:00.537Z,17.60
2023-05-10T23:53:28.301Z,22.05
2023-05-10T23:55:55.361Z,16.52
2023-05-10T23:58:22.353Z,21.00
